Time;durP1;ratioP1;P1;durP2;ratioP2;P2;SDS_P1;SDS_P2;PMS_P1;PMS_P2;Temp;Humidity;BMP_temperature;BMP_pressure;BME280_temperature;BME280_humidity;BME280_pressure;Samples;Min_cycle;Max_cycle;Signal;HPM_P1;HPM_P2
2022/01/04 00:01:31;;;;;;;11.37;5.90;;;;;;;;;;4983140;28;20236;-73
2022/01/04 00:03:57;;;;;;;9.47;5.93;;;;;;;;;;5033307;28;20280;-74
2022/01/04 00:06:25;;;;;;;11.87;6.33;;;;;;;;;;5033315;28;20222;-73
2022/01/04 00:08:59;;;;;;;9.90;5.77;;;;;;;;;;4998740;28;20221;-73
2022/01/04 00:11:42;;;;;;;11.47;6.17;;;;;;;;;;4994337;28;20232;-74
2022/01/04 00:14:08;;;;;;;11.57;5.83;;;;;;;;;;4998758;28;20240;-75
2022/01/04 00:16:36;;;;;;;9.13;5.60;;;;;;;;;;4993893;28;20240;-75
2022/01/04 00:19:03;;;;;;;7.97;5.63;;;;;;;;;;5010062;28;20643;-74
2022/01/04 00:21:29;;;;;;;9.97;6.07;;;;;;;;;;4982805;28;20302;-73
2022/01/04 00:24:00;;;;;;;12.00;6.80;;;;;;;;;;5031846;28;20852;-74
2022/01/04 00:26:26;;;;;;;12.57;6.60;;;;;;;;;;5027365;28;20218;-73
2022/01/04 00:28:51;;;;;;;9.37;6.43;;;;;;;;;;5020579;28;20602;-73
2022/01/04 00:31:21;;;;;;;13.57;6.63;;;;;;;;;;5048397;28;20720;-73
2022/01/04 00:33:49;;;;;;;11.03;7.07;;;;;;;;;;5049759;28;20717;-73
2022/01/04 00:36:15;;;;;;;13.00;7.17;;;;;;;;;;5033084;28;20733;-73
2022/01/04 00:38:43;;;;;;;9.93;7.10;;;;;;;;;;5036459;28;20239;-73
2022/01/04 00:41:09;;;;;;;11.27;7.40;;;;;;;;;;4980229;28;20216;-73
2022/01/04 00:43:37;;;;;;;11.40;7.43;;;;;;;;;;5042097;28;20607;-74
2022/01/04 00:46:05;;;;;;;13.33;7.50;;;;;;;;;;5052670;28;20708;-73
2022/01/04 00:50:58;;;;;;;19.23;12.07;;;;;;;;;;5034318;28;20235;-73
2022/01/04 00:53:24;;;;;;;22.13;13.93;;;;;;;;;;5043209;28;20265;-73
2022/01/04 00:55:49;;;;;;;13.90;8.67;;;;;;;;;;5020498;28;20211;-74
2022/01/04 00:58:20;;;;;;;14.03;9.70;;;;;;;;;;5042957;28;20322;-74
2022/01/04 01:00:48;;;;;;;10.63;8.03;;;;;;;;;;5016599;28;20235;-74
2022/01/04 01:03:14;;;;;;;14.63;9.17;;;;;;;;;;5006754;28;20310;-74
2022/01/04 01:05:41;;;;;;;14.30;8.73;;;;;;;;;;5053313;28;20302;-74
2022/01/04 01:08:11;;;;;;;12.10;8.87;;;;;;;;;;5037004;28;20306;-73
2022/01/04 01:10:49;;;;;;;16.30;9.30;;;;;;;;;;5037700;28;20216;-74
2022/01/04 01:13:14;;;;;;;12.07;9.00;;;;;;;;;;5046833;28;20231;-74
2022/01/04 01:15:45;;;;;;;12.20;8.97;;;;;;;;;;5016314;28;20219;-74
2022/01/04 01:18:14;;;;;;;14.07;10.40;;;;;;;;;;5005678;28;20208;-73
2022/01/04 01:20:41;;;;;;;13.87;9.37;;;;;;;;;;5019703;28;20222;-74
2022/01/04 01:23:07;;;;;;;13.97;9.53;;;;;;;;;;5031050;28;20228;-74
2022/01/04 01:25:33;;;;;;;12.90;9.80;;;;;;;;;;4999704;28;20235;-72
2022/01/04 01:28:01;;;;;;;13.23;10.10;;;;;;;;;;5001578;28;20227;-74
2022/01/04 01:30:28;;;;;;;16.23;11.07;;;;;;;;;;5031523;28;20220;-74
2022/01/04 01:32:56;;;;;;;14.17;10.20;;;;;;;;;;5016502;28;20222;-74
2022/01/04 01:35:21;;;;;;;12.17;9.80;;;;;;;;;;5034954;28;20258;-74
2022/01/04 01:37:49;;;;;;;13.03;10.20;;;;;;;;;;5035548;28;20243;-74
2022/01/04 01:40:15;;;;;;;13.93;10.20;;;;;;;;;;5015893;28;20697;-74
2022/01/04 01:42:40;;;;;;;15.97;10.47;;;;;;;;;;4998870;28;20224;-74
2022/01/04 01:45:10;;;;;;;15.43;11.03;;;;;;;;;;5016082;28;20215;-74
2022/01/04 01:47:41;;;;;;;15.70;11.17;;;;;;;;;;5052260;28;20219;-73
2022/01/04 01:50:07;;;;;;;14.20;11.00;;;;;;;;;;5015584;28;20220;-73
2022/01/04 01:52:35;;;;;;;14.90;11.37;;;;;;;;;;4998313;28;20270;-74
2022/01/04 01:55:05;;;;;;;14.83;11.07;;;;;;;;;;5046963;28;20212;-73
2022/01/04 01:57:33;;;;;;;15.90;11.83;;;;;;;;;;5051176;28;20222;-74
2022/01/04 01:59:58;;;;;;;17.40;11.77;;;;;;;;;;5028486;28;20220;-73
2022/01/04 02:02:24;;;;;;;16.93;11.63;;;;;;;;;;4994566;28;20221;-74
2022/01/04 02:04:51;;;;;;;16.27;12.03;;;;;;;;;;5037777;28;20219;-73
2022/01/04 02:07:17;;;;;;;16.23;11.67;;;;;;;;;;5018397;28;20641;-74
2022/01/04 02:09:52;;;;;;;17.03;11.53;;;;;;;;;;5007713;28;20253;-73
2022/01/04 02:12:19;;;;;;;16.33;12.23;;;;;;;;;;5030475;28;20222;-73
2022/01/04 02:14:49;;;;;;;16.47;11.77;;;;;;;;;;5009199;28;20662;-75
2022/01/04 02:17:14;;;;;;;18.00;12.27;;;;;;;;;;5005721;28;20217;-73
2022/01/04 02:19:40;;;;;;;16.87;12.83;;;;;;;;;;5025790;28;20313;-74
2022/01/04 02:22:08;;;;;;;18.03;13.43;;;;;;;;;;5033975;28;20326;-75
2022/01/04 02:24:33;;;;;;;15.30;12.67;;;;;;;;;;5044793;28;20216;-74
2022/01/04 02:26:59;;;;;;;19.27;12.87;;;;;;;;;;5014924;28;20660;-74
2022/01/04 02:29:25;;;;;;;20.80;12.83;;;;;;;;;;5037167;28;20219;-75
2022/01/04 02:31:53;;;;;;;17.10;13.20;;;;;;;;;;5034246;28;20211;-74
2022/01/04 02:34:19;;;;;;;19.57;12.70;;;;;;;;;;5012974;28;20303;-74
2022/01/04 02:36:47;;;;;;;17.00;12.83;;;;;;;;;;4998326;28;20299;-74
2022/01/04 02:39:12;;;;;;;19.57;13.73;;;;;;;;;;4996727;28;20286;-75
2022/01/04 02:41:38;;;;;;;19.57;13.30;;;;;;;;;;5002211;28;20828;-74
2022/01/04 02:44:04;;;;;;;20.40;13.53;;;;;;;;;;4976714;28;20225;-75
2022/01/04 02:46:29;;;;;;;18.30;12.60;;;;;;;;;;5070050;28;20306;-75
2022/01/04 02:48:55;;;;;;;18.53;13.60;;;;;;;;;;5020610;28;20844;-75
2022/01/04 02:51:23;;;;;;;18.27;13.83;;;;;;;;;;5002688;28;20232;-75
2022/01/04 02:53:51;;;;;;;20.20;13.73;;;;;;;;;;5017290;28;20278;-74
2022/01/04 02:56:19;;;;;;;20.00;13.73;;;;;;;;;;5051422;28;20278;-74
2022/01/04 02:58:44;;;;;;;21.03;13.97;;;;;;;;;;5037105;28;20351;-73
2022/01/04 03:01:15;;;;;;;20.43;14.20;;;;;;;;;;5030498;28;20289;-74
2022/01/04 03:03:40;;;;;;;20.00;14.47;;;;;;;;;;5014603;28;20224;-74
2022/01/04 03:06:06;;;;;;;18.83;13.27;;;;;;;;;;5028705;28;20243;-74
2022/01/04 03:08:36;;;;;;;21.13;14.10;;;;;;;;;;5034359;28;20228;-74
2022/01/04 03:11:03;;;;;;;20.80;14.93;;;;;;;;;;5004633;28;20220;-74
2022/01/04 03:13:29;;;;;;;21.67;14.87;;;;;;;;;;5013711;28;20215;-74
2022/01/04 03:15:54;;;;;;;20.53;14.50;;;;;;;;;;5017949;28;20729;-74
2022/01/04 03:18:23;;;;;;;22.10;15.53;;;;;;;;;;5024174;28;20245;-74
2022/01/04 03:20:51;;;;;;;21.77;15.03;;;;;;;;;;5034241;28;20219;-74
2022/01/04 03:23:19;;;;;;;19.93;15.67;;;;;;;;;;5032698;28;20231;-75
2022/01/04 03:25:44;;;;;;;21.00;14.57;;;;;;;;;;5040438;28;20235;-74
2022/01/04 03:28:18;;;;;;;19.30;15.10;;;;;;;;;;4997203;28;20216;-75
2022/01/04 03:30:48;;;;;;;20.17;14.57;;;;;;;;;;5038757;28;20231;-73
2022/01/04 03:33:16;;;;;;;20.03;14.87;;;;;;;;;;5032963;28;20267;-74
2022/01/04 03:35:41;;;;;;;21.90;15.83;;;;;;;;;;5009564;28;20784;-74
2022/01/04 03:38:07;;;;;;;20.53;15.27;;;;;;;;;;5013055;28;20227;-74
2022/01/04 03:40:32;;;;;;;20.40;14.83;;;;;;;;;;5018265;28;20302;-74
2022/01/04 03:42:58;;;;;;;21.73;15.27;;;;;;;;;;5032706;28;20599;-74
2022/01/04 03:45:23;;;;;;;22.70;15.47;;;;;;;;;;5012644;28;20219;-75
2022/01/04 03:47:51;;;;;;;22.30;15.17;;;;;;;;;;5029823;28;20216;-74
2022/01/04 03:50:24;;;;;;;22.30;15.17;;;;;;;;;;5032304;28;20228;-75
2022/01/04 03:52:49;;;;;;;20.83;15.50;;;;;;;;;;5049456;28;20223;-74
2022/01/04 03:55:17;;;;;;;20.93;15.23;;;;;;;;;;5014829;28;20331;-74
2022/01/04 03:57:46;;;;;;;23.80;16.23;;;;;;;;;;5029899;28;20307;-74
2022/01/04 04:00:12;;;;;;;23.33;14.83;;;;;;;;;;5012278;28;20299;-74
2022/01/04 04:02:40;;;;;;;26.57;16.00;;;;;;;;;;5048734;28;20243;-74
2022/01/04 04:05:08;;;;;;;19.93;15.37;;;;;;;;;;5048817;28;20211;-75
2022/01/04 04:07:33;;;;;;;20.00;15.33;;;;;;;;;;5047666;28;20305;-75
2022/01/04 04:10:01;;;;;;;20.47;15.53;;;;;;;;;;5013072;28;20254;-73
2022/01/04 04:12:29;;;;;;;21.73;15.73;;;;;;;;;;5019162;28;20313;-74
2022/01/04 04:14:58;;;;;;;21.87;16.27;;;;;;;;;;5029007;28;20231;-75
2022/01/04 04:17:26;;;;;;;23.50;16.50;;;;;;;;;;5045021;28;20211;-73
2022/01/04 04:19:53;;;;;;;26.73;16.90;;;;;;;;;;5032617;28;20212;-73
2022/01/04 04:22:21;;;;;;;25.33;17.10;;;;;;;;;;5037999;28;20220;-73
2022/01/04 04:24:51;;;;;;;23.93;17.40;;;;;;;;;;5004207;28;20228;-74
2022/01/04 04:27:17;;;;;;;25.07;17.37;;;;;;;;;;5030219;28;20755;-74
2022/01/04 04:29:45;;;;;;;25.50;17.73;;;;;;;;;;5054529;28;20310;-74
2022/01/04 04:32:10;;;;;;;27.97;17.83;;;;;;;;;;5024666;28;20216;-74
2022/01/04 04:34:39;;;;;;;29.03;17.67;;;;;;;;;;5000963;28;20808;-73
2022/01/04 04:37:09;;;;;;;23.33;17.17;;;;;;;;;;5043806;28;20219;-73
2022/01/04 04:39:39;;;;;;;26.37;18.43;;;;;;;;;;5003755;28;20223;-74
2022/01/04 04:42:08;;;;;;;29.43;18.37;;;;;;;;;;5027165;28;20612;-73
2022/01/04 04:44:33;;;;;;;24.60;19.07;;;;;;;;;;5016939;28;20642;-74
2022/01/04 04:47:01;;;;;;;26.83;19.10;;;;;;;;;;4998550;28;20307;-74
2022/01/04 04:49:26;;;;;;;26.97;18.47;;;;;;;;;;5016643;28;20655;-74
2022/01/04 04:51:59;;;;;;;27.47;19.30;;;;;;;;;;5024046;28;20219;-74
2022/01/04 04:54:25;;;;;;;28.63;19.97;;;;;;;;;;5019848;28;20223;-75
2022/01/04 04:56:53;;;;;;;28.23;20.03;;;;;;;;;;5014823;28;20220;-74
2022/01/04 04:59:19;;;;;;;30.70;19.93;;;;;;;;;;4999453;28;20301;-74
2022/01/04 05:01:51;;;;;;;32.17;21.07;;;;;;;;;;5004481;28;20207;-73
2022/01/04 05:04:18;;;;;;;30.07;21.03;;;;;;;;;;5036022;28;20297;-73
2022/01/04 05:06:46;;;;;;;29.03;19.77;;;;;;;;;;5048481;28;20908;-74
2022/01/04 05:09:14;;;;;;;30.47;21.17;;;;;;;;;;5016055;28;20303;-74
2022/01/04 05:11:40;;;;;;;29.37;21.23;;;;;;;;;;5032031;28;20627;-74
2022/01/04 05:14:05;;;;;;;30.50;21.73;;;;;;;;;;4999330;28;20306;-74
2022/01/04 05:16:31;;;;;;;30.27;21.07;;;;;;;;;;5015918;28;20397;-74
2022/01/04 05:18:59;;;;;;;27.47;20.77;;;;;;;;;;5052540;28;20230;-74
2022/01/04 05:21:29;;;;;;;32.13;21.20;;;;;;;;;;5035087;28;20228;-73
2022/01/04 05:23:54;;;;;;;30.30;21.20;;;;;;;;;;5032958;28;20235;-74
2022/01/04 05:26:22;;;;;;;29.63;23.37;;;;;;;;;;5015550;28;20226;-73
2022/01/04 05:28:50;;;;;;;31.37;23.20;;;;;;;;;;5016406;28;20219;-73
2022/01/04 05:31:20;;;;;;;33.10;22.37;;;;;;;;;;5019043;28;20277;-74
2022/01/04 05:33:47;;;;;;;28.37;22.97;;;;;;;;;;5018918;28;20216;-74
2022/01/04 05:36:13;;;;;;;30.60;21.57;;;;;;;;;;5031852;28;20216;-74
2022/01/04 05:38:41;;;;;;;35.73;22.07;;;;;;;;;;5031847;28;20223;-74
2022/01/04 05:41:09;;;;;;;30.30;21.17;;;;;;;;;;5037283;28;20211;-75
2022/01/04 05:43:35;;;;;;;26.50;20.93;;;;;;;;;;5037169;28;20783;-74
2022/01/04 05:46:05;;;;;;;32.60;21.53;;;;;;;;;;4999297;28;20705;-74
2022/01/04 05:48:36;;;;;;;28.97;21.67;;;;;;;;;;5012776;28;20231;-74
2022/01/04 05:51:03;;;;;;;26.97;22.23;;;;;;;;;;5043288;28;20219;-75
2022/01/04 05:53:33;;;;;;;28.47;21.67;;;;;;;;;;5012035;28;20215;-74
2022/01/04 05:56:03;;;;;;;31.57;23.07;;;;;;;;;;5053302;28;20235;-74
2022/01/04 05:58:31;;;;;;;33.00;23.17;;;;;;;;;;5041676;28;20215;-74
2022/01/04 06:00:56;;;;;;;30.23;23.00;;;;;;;;;;5110708;22;21810;-74
2022/01/04 06:03:25;;;;;;;30.03;23.13;;;;;;;;;;5256045;22;20232;-74
2022/01/04 06:05:51;;;;;;;35.43;24.33;;;;;;;;;;5016922;28;20224;-73
2022/01/04 06:08:20;;;;;;;30.93;23.77;;;;;;;;;;5018343;28;20693;-74
2022/01/04 06:10:50;;;;;;;32.43;24.57;;;;;;;;;;5031238;28;20724;-73
2022/01/04 06:16:04;;;;;;;33.00;25.57;;;;;;;;;;5016721;28;20274;-73
2022/01/04 06:18:30;;;;;;;32.77;25.63;;;;;;;;;;5032425;28;20220;-74
2022/01/04 06:20:57;;;;;;;33.03;25.63;;;;;;;;;;4998147;28;20244;-73
2022/01/04 06:23:26;;;;;;;34.50;26.93;;;;;;;;;;5029747;28;20242;-73
2022/01/04 06:25:59;;;;;;;31.90;26.40;;;;;;;;;;4999757;28;20212;-75
2022/01/04 06:28:24;;;;;;;34.90;27.30;;;;;;;;;;5031545;28;20216;-75
2022/01/04 06:30:50;;;;;;;32.43;24.70;;;;;;;;;;4998177;28;20223;-75
2022/01/04 06:33:19;;;;;;;32.63;25.77;;;;;;;;;;5029394;28;20689;-73
2022/01/04 06:35:46;;;;;;;31.60;25.27;;;;;;;;;;5031935;28;20299;-74
2022/01/04 06:38:13;;;;;;;32.37;25.47;;;;;;;;;;5013723;28;20736;-75
2022/01/04 06:40:39;;;;;;;30.27;24.73;;;;;;;;;;4997702;28;20263;-74
2022/01/04 06:43:06;;;;;;;33.20;25.43;;;;;;;;;;5013262;28;20228;-74
2022/01/04 06:45:32;;;;;;;33.53;25.60;;;;;;;;;;5030397;28;20227;-74
2022/01/04 06:47:57;;;;;;;34.37;25.13;;;;;;;;;;5013726;28;20295;-73
2022/01/04 06:50:24;;;;;;;34.47;26.20;;;;;;;;;;5012949;28;20244;-73
2022/01/04 06:52:52;;;;;;;34.30;25.40;;;;;;;;;;4997003;28;20254;-72
2022/01/04 06:55:20;;;;;;;31.27;24.93;;;;;;;;;;5029241;28;20220;-73
2022/01/04 06:57:45;;;;;;;30.07;25.30;;;;;;;;;;4996943;28;20216;-73
2022/01/04 07:00:11;;;;;;;32.00;25.17;;;;;;;;;;5029206;28;20277;-73
2022/01/04 07:02:37;;;;;;;30.60;25.27;;;;;;;;;;5013197;28;20315;-73
2022/01/04 07:05:03;;;;;;;30.67;25.10;;;;;;;;;;5029239;28;20248;-72
2022/01/04 07:07:31;;;;;;;31.27;24.83;;;;;;;;;;5013672;28;20220;-73
2022/01/04 07:09:57;;;;;;;29.93;24.27;;;;;;;;;;5014282;28;20651;-73
2022/01/04 07:12:25;;;;;;;30.87;23.83;;;;;;;;;;5014218;28;20617;-73
2022/01/04 07:14:51;;;;;;;34.07;24.73;;;;;;;;;;5030226;28;20223;-74
2022/01/04 07:17:16;;;;;;;27.97;24.67;;;;;;;;;;5012731;28;20228;-73
2022/01/04 07:19:48;;;;;;;29.90;23.30;;;;;;;;;;5013536;28;20228;-73
2022/01/04 07:22:16;;;;;;;31.63;24.67;;;;;;;;;;5013091;28;20227;-74
2022/01/04 07:24:42;;;;;;;28.57;24.23;;;;;;;;;;5013835;28;20216;-73
2022/01/04 07:27:08;;;;;;;27.67;24.77;;;;;;;;;;5013355;28;20748;-74
2022/01/04 07:29:33;;;;;;;28.13;23.03;;;;;;;;;;5031325;28;20228;-73
2022/01/04 07:32:01;;;;;;;28.33;23.93;;;;;;;;;;5028962;28;20347;-73
2022/01/04 07:34:27;;;;;;;29.13;23.77;;;;;;;;;;5029482;28;20349;-73
2022/01/04 07:36:57;;;;;;;26.00;22.40;;;;;;;;;;5012948;28;20306;-73
2022/01/04 07:39:22;;;;;;;25.80;22.67;;;;;;;;;;5008882;28;20698;-73
2022/01/04 07:41:50;;;;;;;24.57;21.87;;;;;;;;;;5025475;28;20295;-74
2022/01/04 07:44:19;;;;;;;26.47;22.33;;;;;;;;;;5028337;28;20219;-74
2022/01/04 07:46:47;;;;;;;24.87;22.00;;;;;;;;;;5013669;28;20220;-73
2022/01/04 07:49:16;;;;;;;27.23;21.47;;;;;;;;;;5012587;28;20220;-74
2022/01/04 07:51:44;;;;;;;24.70;21.00;;;;;;;;;;5012837;28;20216;-73
2022/01/04 07:54:14;;;;;;;25.20;21.37;;;;;;;;;;5028821;28;20254;-74
2022/01/04 07:56:39;;;;;;;23.67;21.23;;;;;;;;;;5028565;28;20227;-75
2022/01/04 07:59:09;;;;;;;22.47;20.07;;;;;;;;;;5029263;28;20219;-75
2022/01/04 08:01:37;;;;;;;24.67;20.90;;;;;;;;;;4993360;28;20229;-73
2022/01/04 08:04:04;;;;;;;25.53;20.33;;;;;;;;;;5020067;28;20216;-75
2022/01/04 08:06:34;;;;;;;24.23;20.03;;;;;;;;;;5012752;28;20238;-74
2022/01/04 08:09:02;;;;;;;23.47;21.00;;;;;;;;;;5013066;28;20220;-74
2022/01/04 08:11:30;;;;;;;22.13;19.77;;;;;;;;;;5012102;28;20704;-73
2022/01/04 08:13:56;;;;;;;22.57;20.27;;;;;;;;;;4996409;28;20315;-74
2022/01/04 08:16:23;;;;;;;24.77;20.37;;;;;;;;;;5012349;28;20358;-75
2022/01/04 08:18:51;;;;;;;24.17;20.07;;;;;;;;;;4996813;28;20220;-74
2022/01/04 08:21:19;;;;;;;24.93;19.63;;;;;;;;;;4995680;28;20219;-75
2022/01/04 08:23:45;;;;;;;21.43;19.13;;;;;;;;;;5012164;28;20311;-73
2022/01/04 08:26:13;;;;;;;22.63;20.13;;;;;;;;;;5012459;28;20224;-72
2022/01/04 08:28:38;;;;;;;22.33;19.97;;;;;;;;;;5013428;28;20286;-72
2022/01/04 08:31:04;;;;;;;22.73;18.93;;;;;;;;;;5011626;28;20709;-73
2022/01/04 08:33:29;;;;;;;23.60;19.87;;;;;;;;;;5003543;28;20227;-73
2022/01/04 08:35:55;;;;;;;22.83;20.00;;;;;;;;;;5025981;28;20286;-76
2022/01/04 08:38:23;;;;;;;22.93;20.53;;;;;;;;;;4976812;28;20932;-75
2022/01/04 08:40:48;;;;;;;22.90;20.47;;;;;;;;;;5000757;28;20236;-73
2022/01/04 08:43:14;;;;;;;20.90;18.33;;;;;;;;;;4992866;28;20225;-73
2022/01/04 08:45:40;;;;;;;24.37;18.90;;;;;;;;;;4996079;28;20369;-73
2022/01/04 08:48:06;;;;;;;22.57;18.90;;;;;;;;;;5011661;28;20759;-73
2022/01/04 08:50:31;;;;;;;20.30;17.87;;;;;;;;;;5011843;28;20234;-73
2022/01/04 08:53:02;;;;;;;21.87;19.57;;;;;;;;;;5004643;28;20590;-73
2022/01/04 08:55:30;;;;;;;22.57;18.50;;;;;;;;;;4995889;28;20220;-74
2022/01/04 08:57:55;;;;;;;24.47;18.83;;;;;;;;;;5030205;28;20775;-75
2022/01/04 09:00:21;;;;;;;21.73;18.47;;;;;;;;;;4995329;28;20228;-75
2022/01/04 09:02:49;;;;;;;20.57;18.37;;;;;;;;;;5028208;28;20709;-74
2022/01/04 09:05:22;;;;;;;20.43;18.27;;;;;;;;;;5028284;28;20220;-73
2022/01/04 09:07:50;;;;;;;23.40;18.13;;;;;;;;;;5013691;28;20311;-73
2022/01/04 09:10:15;;;;;;;21.03;17.93;;;;;;;;;;5031605;28;20311;-74
2022/01/04 09:15:29;;;;;;;21.57;17.20;;;;;;;;;;5032511;28;20216;-74
2022/01/04 09:20:39;;;;;;;21.20;18.87;;;;;;;;;;5001757;28;20879;-74
2022/01/04 09:23:07;;;;;;;22.20;18.43;;;;;;;;;;5014821;28;20232;-74
2022/01/04 09:25:37;;;;;;;20.20;17.87;;;;;;;;;;5017465;28;20230;-74
2022/01/04 09:28:04;;;;;;;21.70;17.70;;;;;;;;;;4995724;28;20595;-74
2022/01/04 09:30:32;;;;;;;23.30;17.70;;;;;;;;;;4995293;28;20224;-74
2022/01/04 09:33:05;;;;;;;24.00;17.90;;;;;;;;;;5030706;28;20721;-74
2022/01/04 09:35:31;;;;;;;21.23;17.97;;;;;;;;;;5015968;28;20297;-74
2022/01/04 09:37:59;;;;;;;20.63;18.00;;;;;;;;;;4999619;28;20220;-74
2022/01/04 09:40:27;;;;;;;23.50;18.57;;;;;;;;;;5014815;28;20282;-73
2022/01/04 09:42:55;;;;;;;21.47;18.40;;;;;;;;;;5015435;28;20265;-73
2022/01/04 09:45:23;;;;;;;21.10;18.10;;;;;;;;;;4998502;28;20231;-74
2022/01/04 09:47:49;;;;;;;20.23;18.13;;;;;;;;;;4992423;28;20232;-74
2022/01/04 09:50:14;;;;;;;22.40;17.60;;;;;;;;;;5012559;28;20311;-74
2022/01/04 09:52:46;;;;;;;22.20;17.67;;;;;;;;;;5028556;28;20302;-75
2022/01/04 09:55:15;;;;;;;23.17;18.20;;;;;;;;;;5025937;28;20229;-73
2022/01/04 09:57:45;;;;;;;21.27;17.43;;;;;;;;;;5012813;28;20248;-74
2022/01/04 10:00:15;;;;;;;19.93;17.80;;;;;;;;;;5012324;28;20224;-74
2022/01/04 10:02:45;;;;;;;20.97;17.43;;;;;;;;;;4998011;28;20232;-75
2022/01/04 10:05:23;;;;;;;22.13;18.63;;;;;;;;;;4998633;28;20674;-74
2022/01/04 10:07:59;;;;;;;19.43;17.03;;;;;;;;;;4994624;28;20224;-74
2022/01/04 10:10:27;;;;;;;25.17;20.00;;;;;;;;;;5021634;28;20610;-74
2022/01/04 10:12:59;;;;;;;25.17;19.63;;;;;;;;;;5027123;28;20220;-74
2022/01/04 10:15:47;;;;;;;22.30;18.20;;;;;;;;;;5024559;28;20247;-75
2022/01/04 10:18:12;;;;;;;21.83;18.30;;;;;;;;;;5016359;28;20230;-75
2022/01/04 10:20:45;;;;;;;22.87;17.40;;;;;;;;;;5031867;28;20649;-74
2022/01/04 10:23:13;;;;;;;22.53;18.20;;;;;;;;;;4994849;28;20842;-74
2022/01/04 10:25:39;;;;;;;22.90;19.47;;;;;;;;;;5010760;28;20240;-74
2022/01/04 10:28:05;;;;;;;23.60;19.07;;;;;;;;;;5022312;28;20231;-73
2022/01/04 10:30:32;;;;;;;25.43;19.57;;;;;;;;;;5030709;28;20221;-73
2022/01/04 10:32:59;;;;;;;24.13;19.50;;;;;;;;;;5030979;28;20614;-75
2022/01/04 10:35:34;;;;;;;26.53;20.30;;;;;;;;;;5008462;28;20717;-75
2022/01/04 10:38:14;;;;;;;24.23;19.50;;;;;;;;;;5028629;28;20223;-74
2022/01/04 10:40:41;;;;;;;24.20;18.83;;;;;;;;;;5011256;28;20219;-74
2022/01/04 10:43:11;;;;;;;25.00;21.17;;;;;;;;;;5011801;28;20228;-74
2022/01/04 10:45:42;;;;;;;26.57;19.13;;;;;;;;;;5010158;28;20270;-74
2022/01/04 10:48:13;;;;;;;22.93;19.07;;;;;;;;;;5027672;28;20216;-75
2022/01/04 10:50:39;;;;;;;29.30;21.03;;;;;;;;;;5014160;28;20224;-74
2022/01/04 10:53:05;;;;;;;23.83;18.90;;;;;;;;;;4996189;28;20239;-74
2022/01/04 10:55:38;;;;;;;23.40;19.80;;;;;;;;;;5013799;28;20303;-74
2022/01/04 10:58:06;;;;;;;25.27;18.87;;;;;;;;;;5013324;28;20216;-74
2022/01/04 11:00:34;;;;;;;23.03;18.83;;;;;;;;;;5013779;28;20278;-74
2022/01/04 11:03:02;;;;;;;25.00;18.47;;;;;;;;;;5009472;28;20248;-74
2022/01/04 11:05:28;;;;;;;27.90;20.90;;;;;;;;;;4987046;28;20589;-74
2022/01/04 11:08:01;;;;;;;23.60;18.60;;;;;;;;;;5022347;28;20213;-74
2022/01/04 11:10:30;;;;;;;21.63;17.27;;;;;;;;;;4997149;28;20228;-74
2022/01/04 11:12:57;;;;;;;23.97;18.83;;;;;;;;;;4994666;28;20215;-75
2022/01/04 11:15:26;;;;;;;23.80;18.13;;;;;;;;;;5013464;28;20678;-74
2022/01/04 11:17:54;;;;;;;27.43;19.10;;;;;;;;;;5010052;28;20205;-74
2022/01/04 11:20:21;;;;;;;20.77;17.70;;;;;;;;;;5009470;28;20235;-74
2022/01/04 11:22:48;;;;;;;26.13;17.67;;;;;;;;;;4995452;28;20709;-75
2022/01/04 11:25:19;;;;;;;22.93;17.67;;;;;;;;;;5013091;28;20220;-75
2022/01/04 11:27:45;;;;;;;24.23;17.67;;;;;;;;;;4981140;28;20216;-73
2022/01/04 11:30:17;;;;;;;22.77;18.67;;;;;;;;;;5028304;28;20223;-74
2022/01/04 11:32:44;;;;;;;21.17;18.07;;;;;;;;;;5013169;28;20358;-73
2022/01/04 11:35:19;;;;;;;23.63;18.70;;;;;;;;;;4996768;28;20208;-74
2022/01/04 11:37:56;;;;;;;23.30;18.50;;;;;;;;;;5013741;28;20239;-75
2022/01/04 11:40:24;;;;;;;28.73;18.67;;;;;;;;;;5009185;28;20220;-73
2022/01/04 11:42:50;;;;;;;23.40;18.53;;;;;;;;;;4997651;28;20283;-75
2022/01/04 11:45:38;;;;;;;25.47;19.60;;;;;;;;;;4994322;28;20306;-76
2022/01/04 11:48:27;;;;;;;21.33;17.80;;;;;;;;;;5029090;28;20669;-74
2022/01/04 11:50:57;;;;;;;22.70;17.77;;;;;;;;;;5029790;28;20220;-75
2022/01/04 11:53:27;;;;;;;21.90;17.97;;;;;;;;;;5012526;28;20236;-74
2022/01/04 11:56:00;;;;;;;29.27;19.77;;;;;;;;;;5009623;28;20227;-74
2022/01/04 11:58:26;;;;;;;31.17;19.63;;;;;;;;;;5013224;28;20891;-74
2022/01/04 12:01:02;;;;;;;29.30;20.20;;;;;;;;;;4996442;28;20223;-74
2022/01/04 12:03:43;;;;;;;24.73;19.80;;;;;;;;;;4994273;28;20231;-74
2022/01/04 12:06:09;;;;;;;30.90;20.33;;;;;;;;;;5027971;28;20310;-74
2022/01/04 12:08:38;;;;;;;40.03;28.83;;;;;;;;;;5011283;28;20288;-74
2022/01/04 12:11:03;;;;;;;32.17;21.90;;;;;;;;;;5017379;28;20251;-75
2022/01/04 12:13:51;;;;;;;31.70;21.50;;;;;;;;;;5028816;28;20235;-74
2022/01/04 12:16:39;;;;;;;0.77;0.77;;;;;;;;;;5028075;28;20223;-72
2022/01/04 12:19:22;;;;;;;0.20;0.20;;;;;;;;;;5006235;28;20219;-73
2022/01/04 12:21:48;;;;;;;2.43;1.00;;;;;;;;;;5005806;28;20218;-73
2022/01/04 12:24:24;;;;;;;0.10;0.10;;;;;;;;;;5009671;28;20310;-74
2022/01/04 12:27:09;;;;;;;0.00;0.00;;;;;;;;;;4994345;28;20302;-73
2022/01/04 12:29:34;;;;;;;0.10;0.10;;;;;;;;;;5008122;28;20224;-74
2022/01/04 12:32:02;;;;;;;0.30;0.30;;;;;;;;;;4976020;28;20216;-74
2022/01/04 12:34:41;;;;;;;0.10;0.10;;;;;;;;;;4990755;28;20232;-74
2022/01/04 12:37:18;;;;;;;0.10;0.10;;;;;;;;;;5011921;28;20290;-74
2022/01/04 12:39:44;;;;;;;0.10;0.10;;;;;;;;;;5028415;28;20239;-73
2022/01/04 12:42:15;;;;;;;0.37;0.37;;;;;;;;;;5014223;28;20308;-74
2022/01/04 12:44:43;;;;;;;0.07;0.07;;;;;;;;;;4996965;28;20229;-72
2022/01/04 12:47:11;;;;;;;0.20;0.20;;;;;;;;;;5002115;28;20217;-74
2022/01/04 12:49:37;;;;;;;0.00;0.00;;;;;;;;;;5014519;28;20289;-73
2022/01/04 12:52:08;;;;;;;0.37;0.37;;;;;;;;;;4993897;28;20285;-76
2022/01/04 12:54:36;;;;;;;0.00;0.00;;;;;;;;;;5032552;28;20232;-73
2022/01/04 12:57:14;;;;;;;0.10;0.10;;;;;;;;;;5015236;28;20228;-74
2022/01/04 12:59:55;;;;;;;0.00;0.00;;;;;;;;;;5016654;28;20219;-74
2022/01/04 13:02:26;;;;;;;0.00;0.00;;;;;;;;;;5014518;28;20599;-75
2022/01/04 13:04:57;;;;;;;0.10;0.10;;;;;;;;;;5012250;28;20243;-73
2022/01/04 13:07:32;;;;;;;0.00;0.00;;;;;;;;;;5031149;28;20678;-73
2022/01/04 13:10:10;;;;;;;0.00;0.00;;;;;;;;;;5030006;28;20262;-76
2022/01/04 13:12:44;;;;;;;0.00;0.00;;;;;;;;;;5005643;28;20224;-74
2022/01/04 13:15:14;;;;;;;0.00;0.00;;;;;;;;;;5011106;28;20222;-74
2022/01/04 13:17:44;;;;;;;0.00;0.00;;;;;;;;;;4983121;28;20216;-75
2022/01/04 13:20:15;;;;;;;0.00;0.00;;;;;;;;;;4998302;28;20697;-74
2022/01/04 13:22:40;;;;;;;0.10;0.10;;;;;;;;;;5015780;28;20239;-74
2022/01/04 13:25:07;;;;;;;0.00;0.00;;;;;;;;;;5031406;28;20220;-76
2022/01/04 13:27:37;;;;;;;0.00;0.00;;;;;;;;;;5015506;28;20220;-75
2022/01/04 13:30:14;;;;;;;0.53;0.50;;;;;;;;;;5014639;28;20220;-74
2022/01/04 13:32:41;;;;;;;0.00;0.00;;;;;;;;;;5014876;28;20661;-75
2022/01/04 13:35:19;;;;;;;0.00;0.00;;;;;;;;;;5006617;28;20220;-74
2022/01/04 13:37:54;;;;;;;0.20;0.20;;;;;;;;;;5018817;28;20247;-74
2022/01/04 13:40:20;;;;;;;0.00;0.00;;;;;;;;;;4977836;28;20230;-74
2022/01/04 13:42:48;;;;;;;0.40;0.40;;;;;;;;;;4987453;28;20338;-74
2022/01/04 13:45:19;;;;;;;0.00;0.00;;;;;;;;;;4988344;28;20761;-74
2022/01/04 13:47:56;;;;;;;0.00;0.00;;;;;;;;;;4987286;28;20220;-75
2022/01/04 13:50:31;;;;;;;0.10;0.10;;;;;;;;;;4989701;28;20224;-74
2022/01/04 13:52:59;;;;;;;0.33;0.33;;;;;;;;;;5003823;28;20238;-74
2022/01/04 13:55:41;;;;;;;0.00;0.00;;;;;;;;;;5016903;28;20235;-74
2022/01/04 13:58:10;;;;;;;0.10;0.10;;;;;;;;;;5006988;28;20771;-73
2022/01/04 14:00:38;;;;;;;0.10;0.10;;;;;;;;;;5018288;28;20228;-73
2022/01/04 14:03:41;;;;;;;0.30;0.30;;;;;;;;;;4990504;28;20266;-74
2022/01/04 14:06:31;;;;;;;0.00;0.00;;;;;;;;;;4979668;28;20304;-73
2022/01/04 14:09:05;;;;;;;0.10;0.10;;;;;;;;;;5025784;28;20208;-75
2022/01/04 14:11:42;;;;;;;0.00;0.00;;;;;;;;;;5012177;28;20640;-74
2022/01/04 14:14:18;;;;;;;0.10;0.10;;;;;;;;;;5014042;28;20219;-74
2022/01/04 14:16:47;;;;;;;0.53;0.30;;;;;;;;;;4973627;28;20220;-74
2022/01/04 14:19:22;;;;;;;0.10;0.10;;;;;;;;;;5009034;28;20223;-74
2022/01/04 14:21:57;;;;;;;0.00;0.00;;;;;;;;;;5013897;28;20770;-76
2022/01/04 14:24:46;;;;;;;0.20;0.20;;;;;;;;;;5012627;28;20322;-74
2022/01/04 14:27:18;;;;;;;0.10;0.10;;;;;;;;;;5031916;28;20212;-73
2022/01/04 14:29:45;;;;;;;0.50;0.50;;;;;;;;;;5029243;28;20311;-75
2022/01/04 14:32:10;;;;;;;0.00;0.00;;;;;;;;;;5009404;28;20224;-73
2022/01/04 14:34:38;;;;;;;0.20;0.20;;;;;;;;;;5026855;28;20250;-75
2022/01/04 14:37:05;;;;;;;0.00;0.00;;;;;;;;;;4996143;28;20238;-73
2022/01/04 14:39:32;;;;;;;0.10;0.10;;;;;;;;;;4994847;28;20751;-74
2022/01/04 14:42:04;;;;;;;0.00;0.00;;;;;;;;;;5029192;28;20224;-74
2022/01/04 14:44:30;;;;;;;0.20;0.20;;;;;;;;;;4997956;28;20227;-74